Time;durP1;ratioP1;P1;durP2;ratioP2;P2;SDS_P1;SDS_P2;PMS_P1;PMS_P2;Temp;Humidity;BMP_temperature;BMP_pressure;BME280_temperature;BME280_humidity;BME280_pressure;Samples;Min_cycle;Max_cycle;Signal;HPM_P1;HPM_P2
2022/09/05 00:02:00;;;;;;;0.30;0.30;;;19.40;94.00;;;;;;4986078;28;20063;-87
2022/09/05 00:04:58;;;;;;;0.30;0.30;;;19.40;94.30;;;;;;4970551;28;20050;-86
2022/09/05 00:07:33;;;;;;;0.30;0.30;;;19.30;94.80;;;;;;4970634;28;20046;-87
2022/09/05 00:10:21;;;;;;;0.30;0.30;;;19.30;94.70;;;;;;4971605;28;20050;-87
2022/09/05 00:12:47;;;;;;;0.47;0.47;;;19.30;94.80;;;;;;4971453;28;20066;-87
2022/09/05 00:15:22;;;;;;;0.73;0.40;;;19.30;94.70;;;;;;4975860;28;20046;-87
2022/09/05 00:18:25;;;;;;;0.50;0.50;;;19.20;95.10;;;;;;4974442;28;20046;-87
2022/09/05 00:21:04;;;;;;;0.50;0.50;;;19.30;95.30;;;;;;4958421;28;20153;-87
2022/09/05 00:23:49;;;;;;;0.20;0.20;;;19.30;95.40;;;;;;4973252;28;20039;-86
2022/09/05 00:26:43;;;;;;;0.20;0.20;;;19.30;95.10;;;;;;4975734;28;20082;-86
2022/09/05 00:29:26;;;;;;;0.40;0.40;;;19.20;95.50;;;;;;4975066;28;20047;-86
2022/09/05 00:31:55;;;;;;;0.40;0.40;;;19.20;95.20;;;;;;4975662;28;20094;-87
2022/09/05 00:34:43;;;;;;;0.35;0.35;;;19.20;95.50;;;;;;4974951;28;20394;-87
2022/09/05 00:37:10;;;;;;;0.38;0.38;;;19.20;95.80;;;;;;4966596;28;20079;-87
2022/09/05 00:39:41;;;;;;;0.30;0.30;;;19.20;95.60;;;;;;4963140;28;20057;-87
2022/09/05 00:42:14;;;;;;;0.47;0.40;;;19.20;95.60;;;;;;4975572;28;20050;-87
2022/09/05 00:45:01;;;;;;;0.47;0.47;;;19.20;96.10;;;;;;4974278;28;20081;-87
2022/09/05 00:47:40;;;;;;;0.40;0.40;;;19.20;96.40;;;;;;4961823;28;20511;-86
2022/09/05 00:50:15;;;;;;;0.50;0.50;;;19.10;95.50;;;;;;4967499;28;20489;-86
2022/09/05 00:52:55;;;;;;;0.22;0.20;;;19.10;95.40;;;;;;4975405;28;20051;-87
2022/09/05 00:55:53;;;;;;;0.22;0.20;;;19.10;95.60;;;;;;4975932;28;20054;-87
2022/09/05 00:58:51;;;;;;;0.30;0.30;;;19.10;96.20;;;;;;4953794;28;20058;-86
2022/09/05 01:01:48;;;;;;;0.75;0.75;;;19.10;96.60;;;;;;4986160;28;20058;-87
2022/09/05 01:04:43;;;;;;;0.30;0.30;;;19.00;96.80;;;;;;4952808;29;20625;-86
2022/09/05 01:07:51;;;;;;;0.50;0.45;;;19.00;96.80;;;;;;4967648;28;20276;-87
2022/09/05 01:10:20;;;;;;;0.47;0.47;;;19.00;96.50;;;;;;4973447;28;20058;-86
2022/09/05 01:13:00;;;;;;;0.43;0.40;;;18.90;96.60;;;;;;4989556;28;20425;-86
2022/09/05 01:15:42;;;;;;;0.35;0.35;;;18.90;97.00;;;;;;4975164;28;20058;-87
2022/09/05 01:18:47;;;;;;;0.45;0.40;;;18.90;97.00;;;;;;4973004;28;20065;-87
2022/09/05 01:21:19;;;;;;;0.75;0.50;;;18.90;97.40;;;;;;4964708;28;20058;-87
2022/09/05 01:24:03;;;;;;;0.47;0.47;;;18.90;97.20;;;;;;4955935;28;20043;-86
2022/09/05 01:26:28;;;;;;;0.50;0.50;;;18.80;96.70;;;;;;4956349;28;20110;-86
2022/09/05 01:29:18;;;;;;;0.47;0.47;;;18.70;96.90;;;;;;4954466;28;20054;-86
2022/09/05 01:31:55;;;;;;;0.40;0.40;;;18.70;97.30;;;;;;4973472;28;20533;-87
2022/09/05 01:34:36;;;;;;;0.47;0.47;;;18.70;97.40;;;;;;4970926;28;20046;-86
2022/09/05 01:37:18;;;;;;;0.57;0.57;;;18.70;97.90;;;;;;4974520;28;20137;-86
2022/09/05 01:39:57;;;;;;;0.28;0.28;;;18.60;98.00;;;;;;4970977;28;20739;-86
2022/09/05 01:42:37;;;;;;;0.30;0.30;;;18.60;97.90;;;;;;4974403;28;20050;-86
2022/09/05 01:45:43;;;;;;;0.80;0.50;;;18.60;98.20;;;;;;4972276;28;20057;-86
2022/09/05 01:48:20;;;;;;;0.40;0.40;;;18.50;98.60;;;;;;4974665;28;20473;-86
2022/09/05 01:51:02;;;;;;;1.13;0.50;;;18.40;99.00;;;;;;4972947;28;20042;-86
2022/09/05 01:53:54;;;;;;;0.45;0.45;;;18.40;98.90;;;;;;4975385;28;20054;-86
2022/09/05 01:56:38;;;;;;;0.55;0.55;;;18.30;99.20;;;;;;4967477;28;20078;-86
2022/09/05 01:59:37;;;;;;;0.75;0.50;;;18.20;99.20;;;;;;4974009;28;20508;-86
2022/09/05 02:02:12;;;;;;;0.40;0.40;;;18.10;99.50;;;;;;4970780;28;20042;-86
2022/09/05 02:04:51;;;;;;;0.40;0.40;;;18.00;99.60;;;;;;4972591;28;20053;-87
2022/09/05 02:07:42;;;;;;;0.50;0.45;;;17.90;99.80;;;;;;4970320;28;20051;-86
2022/09/05 02:10:38;;;;;;;0.68;0.68;;;17.90;99.90;;;;;;4973420;28;20433;-87
2022/09/05 02:13:33;;;;;;;0.43;0.43;;;17.80;99.90;;;;;;4976000;28;20074;-87
2022/09/05 02:16:11;;;;;;;0.40;0.40;;;17.70;99.90;;;;;;4963159;28;20122;-86
2022/09/05 02:19:07;;;;;;;0.52;0.52;;;17.60;99.90;;;;;;4973511;28;20375;-86
2022/09/05 02:21:36;;;;;;;0.50;0.50;;;17.50;99.90;;;;;;4972208;28;20043;-86
2022/09/05 02:24:05;;;;;;;0.70;0.70;;;17.40;99.90;;;;;;4969552;28;20118;-86
2022/09/05 02:26:41;;;;;;;0.30;0.30;;;17.30;99.90;;;;;;4968993;28;20054;-86
2022/09/05 02:29:54;;;;;;;0.40;0.30;;;17.30;99.90;;;;;;4955071;28;20055;-86
2022/09/05 02:32:34;;;;;;;0.52;0.50;;;17.20;99.90;;;;;;4957301;28;20055;-86
2022/09/05 02:35:14;;;;;;;0.50;0.50;;;17.10;99.90;;;;;;4967952;28;20130;-86
2022/09/05 02:37:45;;;;;;;0.73;0.47;;;17.00;99.90;;;;;;4968701;28;20054;-87
2022/09/05 02:40:27;;;;;;;0.70;0.50;;;16.90;99.90;;;;;;4973550;28;20051;-86
2022/09/05 02:43:10;;;;;;;0.50;0.50;;;16.90;99.90;;;;;;4971983;28;20118;-86
2022/09/05 02:46:06;;;;;;;0.52;0.30;;;16.80;99.90;;;;;;4956163;28;20054;-87
2022/09/05 02:48:44;;;;;;;0.30;0.30;;;16.70;99.90;;;;;;4968790;28;20074;-87
2022/09/05 02:51:49;;;;;;;0.40;0.40;;;16.60;99.90;;;;;;4972395;28;20049;-87
2022/09/05 02:54:22;;;;;;;0.47;0.47;;;16.60;99.90;;;;;;4933205;29;20047;-87
2022/09/05 02:56:59;;;;;;;0.63;0.50;;;16.50;99.90;;;;;;4932527;29;20123;-86
2022/09/05 02:59:30;;;;;;;0.50;0.50;;;16.50;99.90;;;;;;4947546;28;20055;-87
2022/09/05 03:02:22;;;;;;;0.57;0.57;;;16.40;99.90;;;;;;4968485;28;20129;-86
2022/09/05 03:05:06;;;;;;;0.35;0.30;;;16.40;99.90;;;;;;4971764;28;20154;-86
2022/09/05 03:08:09;;;;;;;0.40;0.40;;;16.30;99.90;;;;;;4971734;28;20057;-86
2022/09/05 03:11:06;;;;;;;0.60;0.60;;;16.30;99.90;;;;;;4970663;28;20086;-86
2022/09/05 03:13:56;;;;;;;1.15;0.50;;;16.20;99.90;;;;;;4972050;28;20126;-87
2022/09/05 03:17:03;;;;;;;0.43;0.43;;;16.20;99.90;;;;;;4971347;28;20051;-86
2022/09/05 03:19:50;;;;;;;0.38;0.38;;;16.10;99.90;;;;;;4954523;28;20096;-86
2022/09/05 03:22:43;;;;;;;0.50;0.50;;;16.10;99.90;;;;;;4955113;28;20098;-86
2022/09/05 03:25:46;;;;;;;0.50;0.50;;;16.00;99.90;;;;;;4970376;28;20047;-86
2022/09/05 03:28:32;;;;;;;1.08;0.65;;;16.00;99.90;;;;;;4953769;29;20589;-86
2022/09/05 03:31:22;;;;;;;0.40;0.40;;;15.90;99.90;;;;;;4966824;28;20137;-86
2022/09/05 03:34:09;;;;;;;0.20;0.20;;;15.90;99.90;;;;;;4972185;28;20409;-86
2022/09/05 03:37:19;;;;;;;0.38;0.28;;;15.90;99.90;;;;;;4965680;28;20062;-87
2022/09/05 03:40:03;;;;;;;0.85;0.77;;;15.80;99.90;;;;;;4951745;28;20073;-87
2022/09/05 03:42:49;;;;;;;0.30;0.30;;;15.70;99.90;;;;;;4969855;28;20043;-86
2022/09/05 03:45:35;;;;;;;0.35;0.30;;;15.70;99.90;;;;;;4974660;28;20065;-86
2022/09/05 03:48:27;;;;;;;0.30;0.30;;;15.70;99.90;;;;;;4944141;28;20055;-86
2022/09/05 03:51:12;;;;;;;1.13;0.50;;;15.60;99.90;;;;;;4957696;28;20560;-86
2022/09/05 03:53:58;;;;;;;0.43;0.43;;;15.60;99.90;;;;;;4974796;28;20057;-86
2022/09/05 03:56:52;;;;;;;0.50;0.50;;;15.60;99.90;;;;;;4975547;28;20050;-87
2022/09/05 03:59:55;;;;;;;0.75;0.60;;;15.50;99.90;;;;;;4973888;28;20057;-86
2022/09/05 04:02:26;;;;;;;0.40;0.40;;;15.50;99.90;;;;;;4967067;28;20039;-86
2022/09/05 04:05:10;;;;;;;0.30;0.30;;;15.50;99.90;;;;;;4975134;28;20090;-86
2022/09/05 04:07:42;;;;;;;0.40;0.40;;;15.40;99.90;;;;;;4975227;28;20164;-86
2022/09/05 04:10:30;;;;;;;0.20;0.20;;;15.40;99.90;;;;;;4974300;28;20608;-86
2022/09/05 04:13:02;;;;;;;0.40;0.40;;;15.40;99.90;;;;;;4982012;28;20070;-86
2022/09/05 04:15:42;;;;;;;0.63;0.52;;;15.40;99.90;;;;;;4962315;28;20193;-86
2022/09/05 04:18:25;;;;;;;0.50;0.40;;;15.30;99.90;;;;;;4995832;28;20050;-86
2022/09/05 04:21:00;;;;;;;0.85;0.50;;;15.30;99.90;;;;;;4976587;28;20081;-86
2022/09/05 04:23:51;;;;;;;0.63;0.52;;;15.30;99.90;;;;;;4961756;28;20053;-86
2022/09/05 04:26:34;;;;;;;0.40;0.40;;;15.20;99.90;;;;;;4977313;28;20046;-86
2022/09/05 04:29:15;;;;;;;0.30;0.30;;;15.20;99.90;;;;;;4977497;28;20050;-86
2022/09/05 04:31:40;;;;;;;0.60;0.50;;;15.10;99.90;;;;;;4976185;28;20105;-86
2022/09/05 04:34:26;;;;;;;0.90;0.57;;;15.10;99.90;;;;;;4990296;28;20038;-86
2022/09/05 04:37:07;;;;;;;0.40;0.40;;;15.10;99.90;;;;;;4993171;28;20117;-86
2022/09/05 04:39:34;;;;;;;0.85;0.85;;;15.10;99.90;;;;;;4977631;28;20085;-86
2022/09/05 04:42:22;;;;;;;0.45;0.45;;;15.00;99.90;;;;;;4975487;28;20050;-86
2022/09/05 04:44:59;;;;;;;;;;;15.00;99.90;;;;;;4994678;28;20046;-86
2022/09/05 04:47:29;;;;;;;1.27;0.50;;;14.90;99.90;;;;;;4962007;28;19933;-86
2022/09/05 04:50:03;;;;;;;0.57;0.55;;;14.90;99.90;;;;;;4976506;28;20050;-86
2022/09/05 04:52:47;;;;;;;0.50;0.40;;;14.90;99.90;;;;;;4964206;28;20057;-87
2022/09/05 04:55:27;;;;;;;0.68;0.40;;;14.80;99.90;;;;;;4976078;28;20104;-86
2022/09/05 04:58:05;;;;;;;0.85;0.55;;;14.80;99.90;;;;;;4978003;28;20081;-86
2022/09/05 05:00:52;;;;;;;0.35;0.35;;;14.80;99.90;;;;;;4995673;28;20053;-86
2022/09/05 05:03:26;;;;;;;0.73;0.50;;;14.70;99.90;;;;;;4976206;28;20053;-86
2022/09/05 05:06:01;;;;;;;0.50;0.40;;;14.70;99.90;;;;;;4994892;28;20045;-86
2022/09/05 05:08:49;;;;;;;0.60;0.60;;;14.70;99.90;;;;;;4959713;28;20042;-86
2022/09/05 05:11:18;;;;;;;0.82;0.65;;;14.00;99.90;;;;;;4976403;28;20433;-86
2022/09/05 05:14:00;;;;;;;0.50;0.50;;;14.70;99.90;;;;;;4976577;28;20051;-86
2022/09/05 05:16:31;;;;;;;0.40;0.40;;;14.70;99.90;;;;;;4975067;28;20149;-86
2022/09/05 05:19:15;;;;;;;0.60;0.60;;;14.70;99.90;;;;;;4994075;28;20052;-86
2022/09/05 05:21:47;;;;;;;1.00;0.60;;;14.70;99.90;;;;;;4994009;28;20047;-86
2022/09/05 05:24:16;;;;;;;1.05;0.60;;;14.70;99.90;;;;;;4994734;28;20497;-86
2022/09/05 05:27:01;;;;;;;0.85;0.80;;;14.80;99.90;;;;;;4976485;28;20050;-86
2022/09/05 05:29:42;;;;;;;0.40;0.40;;;14.80;99.90;;;;;;4993533;28;20307;-86
2022/09/05 05:32:22;;;;;;;0.95;0.50;;;14.80;99.90;;;;;;4993252;28;20061;-85
2022/09/05 05:35:02;;;;;;;0.47;0.40;;;14.80;99.90;;;;;;4993071;28;20046;-86
2022/09/05 05:37:50;;;;;;;1.10;1.00;;;14.80;99.90;;;;;;4993049;28;20054;-86
2022/09/05 05:40:16;;;;;;;0.40;0.40;;;14.90;99.90;;;;;;4992044;28;20128;-85
2022/09/05 05:42:44;;;;;;;0.63;0.63;;;14.90;99.90;;;;;;4992317;28;20457;-86
2022/09/05 05:45:16;;;;;;;0.95;0.70;;;14.90;99.90;;;;;;4964867;28;20053;-85
2022/09/05 05:47:44;;;;;;;0.68;0.60;;;14.90;99.90;;;;;;4976565;28;20125;-85
2022/09/05 05:50:48;;;;;;;0.70;0.70;;;15.00;99.90;;;;;;4977153;28;20077;-85
2022/09/05 05:53:17;;;;;;;1.13;0.68;;;15.10;99.90;;;;;;4975984;28;20517;-85
2022/09/05 05:55:52;;;;;;;0.50;0.50;;;15.20;99.90;;;;;;4965495;28;20082;-85
2022/09/05 05:58:45;;;;;;;1.33;0.57;;;15.30;99.90;;;;;;4953938;28;20104;-88
2022/09/05 06:01:32;;;;;;;1.45;0.60;;;15.40;99.90;;;;;;4990300;28;20508;-82
2022/09/05 06:04:18;;;;;;;0.40;0.40;;;15.60;99.90;;;;;;4978535;28;20488;-88
2022/09/05 06:06:53;;;;;;;1.17;0.77;;;15.90;99.90;;;;;;4976382;28;20046;-84
2022/09/05 06:09:37;;;;;;;0.75;0.68;;;16.10;99.90;;;;;;4976916;28;20042;-86
2022/09/05 06:12:44;;;;;;;1.08;0.73;;;16.40;99.90;;;;;;4989828;28;20046;-86
2022/09/05 06:15:53;;;;;;;0.50;0.40;;;16.70;99.90;;;;;;4976131;28;20071;-84
2022/09/05 06:18:40;;;;;;;0.50;0.47;;;16.80;99.90;;;;;;4974422;28;20062;-85
2022/09/05 06:21:30;;;;;;;0.50;0.50;;;16.90;99.90;;;;;;4975305;28;20366;-85
2022/09/05 06:24:30;;;;;;;1.42;0.55;;;17.10;99.90;;;;;;4957753;28;20298;-83
2022/09/05 06:27:06;;;;;;;0.95;0.68;;;17.20;99.90;;;;;;4982998;28;20402;-85
2022/09/05 06:29:54;;;;;;;0.93;0.68;;;17.20;99.90;;;;;;4988086;28;20089;-84
2022/09/05 06:32:32;;;;;;;;;;;17.40;99.90;;;;;;4972687;28;20077;-84
2022/09/05 06:35:16;;;;;;;0.85;0.70;;;17.40;99.90;;;;;;4973764;28;19922;-84
2022/09/05 06:38:00;;;;;;;0.73;0.68;;;17.40;99.90;;;;;;4940967;28;20508;-84
2022/09/05 06:40:34;;;;;;;0.60;0.60;;;17.60;99.90;;;;;;4988881;28;20043;-84
2022/09/05 06:43:18;;;;;;;0.98;0.80;;;17.80;99.90;;;;;;4993820;28;20053;-83
2022/09/05 06:45:59;;;;;;;0.90;0.52;;;18.10;99.90;;;;;;4976627;28;20473;-84
2022/09/05 06:48:34;;;;;;;1.42;0.65;;;18.40;99.90;;;;;;4960244;28;20493;-84
2022/09/05 06:51:06;;;;;;;0.55;0.50;;;18.60;99.90;;;;;;4991348;28;20055;-84
2022/09/05 06:53:32;;;;;;;0.38;0.38;;;18.80;99.90;;;;;;4991653;28;20065;-84
2022/09/05 06:56:17;;;;;;;0.57;0.53;;;19.10;99.90;;;;;;4992801;28;20046;-85
2022/09/05 06:58:52;;;;;;;1.05;0.57;;;19.30;99.90;;;;;;4993260;28;20046;-85
2022/09/05 07:01:33;;;;;;;0.50;0.50;;;19.50;99.90;;;;;;4993593;28;20046;-87
2022/09/05 07:04:39;;;;;;;1.02;0.77;;;19.60;99.90;;;;;;4988793;28;20050;-86
2022/09/05 07:07:27;;;;;;;0.93;0.77;;;19.70;99.90;;;;;;4979608;28;20058;-86
2022/09/05 07:10:03;;;;;;;0.40;0.40;;;19.70;99.90;;;;;;4976183;28;20092;-86
2022/09/05 07:13:07;;;;;;;0.70;0.50;;;19.70;99.90;;;;;;4975657;28;20069;-86
2022/09/05 07:16:01;;;;;;;0.60;0.60;;;19.80;99.90;;;;;;4977993;28;20043;-86
2022/09/05 07:18:56;;;;;;;0.70;0.60;;;19.90;99.90;;;;;;4975722;28;20185;-87
2022/09/05 07:21:34;;;;;;;0.57;0.43;;;20.10;99.90;;;;;;4973852;28;20058;-85
2022/09/05 07:24:08;;;;;;;1.00;0.90;;;20.20;99.90;;;;;;4974165;28;20042;-86
2022/09/05 07:26:38;;;;;;;0.38;0.38;;;20.30;99.90;;;;;;4956443;28;20050;-86
2022/09/05 07:29:06;;;;;;;1.00;0.63;;;20.40;99.90;;;;;;4974194;28;20130;-86
2022/09/05 07:31:38;;;;;;;0.47;0.45;;;20.50;99.90;;;;;;4973722;28;20046;-86
2022/09/05 07:34:08;;;;;;;0.50;0.50;;;20.60;99.90;;;;;;4992851;28;20057;-88
2022/09/05 07:36:44;;;;;;;1.65;0.60;;;20.60;99.90;;;;;;4992906;28;20046;-87
2022/09/05 07:39:19;;;;;;;1.23;0.57;;;20.50;99.90;;;;;;4976264;28;20053;-87
2022/09/05 07:41:51;;;;;;;0.57;0.57;;;20.60;99.90;;;;;;4991350;28;20058;-87
2022/09/05 07:44:20;;;;;;;0.93;0.77;;;20.70;99.90;;;;;;4993170;28;20035;-88
2022/09/05 07:46:53;;;;;;;0.90;0.88;;;20.70;99.90;;;;;;4975416;28;20496;-87
2022/09/05 07:49:22;;;;;;;0.50;0.50;;;20.60;99.90;;;;;;4975975;28;20515;-87
2022/09/05 07:52:00;;;;;;;0.93;0.70;;;20.60;99.90;;;;;;4974988;28;20062;-87
2022/09/05 07:54:34;;;;;;;0.60;0.60;;;20.80;99.90;;;;;;4979995;28;20109;-87
2022/09/05 07:57:03;;;;;;;0.55;0.55;;;21.00;99.90;;;;;;4964522;28;20050;-87
2022/09/05 07:59:34;;;;;;;0.80;0.60;;;21.20;99.90;;;;;;4992456;28;20109;-87
2022/09/05 08:02:01;;;;;;;0.68;0.63;;;21.50;99.90;;;;;;4959667;28;20050;-87
2022/09/05 08:04:29;;;;;;;0.73;0.60;;;21.70;99.90;;;;;;4990390;28;20039;-84
2022/09/05 08:06:58;;;;;;;0.70;0.70;;;22.00;99.90;;;;;;4992816;28;20061;-86
2022/09/05 08:09:35;;;;;;;0.43;0.43;;;22.30;99.90;;;;;;4974336;28;20038;-85
2022/09/05 08:12:10;;;;;;;0.73;0.73;;;22.50;99.90;;;;;;4974424;28;20055;-85
2022/09/05 08:14:36;;;;;;;0.82;0.80;;;22.60;99.90;;;;;;4972591;28;20492;-85
2022/09/05 08:17:06;;;;;;;0.50;0.50;;;22.70;99.90;;;;;;4973226;28;20129;-84
2022/09/05 08:19:59;;;;;;;0.68;0.40;;;22.90;99.70;;;;;;4970517;28;20054;-86
2022/09/05 08:22:34;;;;;;;0.50;0.50;;;23.00;99.20;;;;;;4976940;28;20077;-87
2022/09/05 08:25:09;;;;;;;0.70;0.65;;;23.10;98.80;;;;;;4970288;28;20048;-86
2022/09/05 08:27:46;;;;;;;0.77;0.63;;;23.10;98.90;;;;;;4968492;28;20146;-86
2022/09/05 08:30:12;;;;;;;0.57;0.55;;;23.30;98.50;;;;;;4991335;28;20054;-87
2022/09/05 08:32:54;;;;;;;;;;;23.40;98.80;;;;;;4976338;28;20101;-85
2022/09/05 08:35:46;;;;;;;0.73;0.60;;;23.50;97.80;;;;;;4992300;28;19992;-85
2022/09/05 08:38:15;;;;;;;0.43;0.40;;;23.70;98.10;;;;;;4975409;28;20054;-86
2022/09/05 08:41:13;;;;;;;0.30;0.30;;;23.80;98.00;;;;;;4967200;28;20046;-86
2022/09/05 08:43:57;;;;;;;0.40;0.40;;;23.90;97.50;;;;;;4984560;28;20117;-86
2022/09/05 08:46:25;;;;;;;1.15;0.75;;;24.00;96.90;;;;;;4968993;28;20061;-87
2022/09/05 08:49:26;;;;;;;0.28;0.28;;;24.00;97.60;;;;;;4970411;28;20173;-87
2022/09/05 08:51:54;;;;;;;0.57;0.45;;;24.20;97.00;;;;;;4915615;28;20055;-87
2022/09/05 08:54:38;;;;;;;0.52;0.52;;;24.20;97.00;;;;;;4964832;28;20062;-87
2022/09/05 08:57:16;;;;;;;0.43;0.40;;;24.20;96.90;;;;;;4945354;28;20055;-85
2022/09/05 09:00:04;;;;;;;0.73;0.50;;;24.20;96.50;;;;;;4958557;28;20039;-86
2022/09/05 09:02:48;;;;;;;0.38;0.38;;;24.30;96.50;;;;;;4941499;28;20073;-87
2022/09/05 09:05:17;;;;;;;0.63;0.63;;;24.20;96.10;;;;;;4957985;28;20069;-87
2022/09/05 09:07:46;;;;;;;0.75;0.50;;;24.40;96.30;;;;;;4956685;28;20078;-87
2022/09/05 09:10:46;;;;;;;0.60;0.40;;;24.50;96.10;;;;;;4937934;28;20047;-86
2022/09/05 09:13:35;;;;;;;0.45;0.45;;;24.70;95.50;;;;;;4960949;28;20443;-86
2022/09/05 09:16:17;;;;;;;0.32;0.32;;;24.70;95.50;;;;;;4973441;28;20105;-86
2022/09/05 09:18:49;;;;;;;0.50;0.50;;;24.80;95.00;;;;;;4955836;28;20393;-87
2022/09/05 09:22:16;;;;;;;0.63;0.60;;;25.00;94.90;;;;;;4956387;28;20311;-87
2022/09/05 09:25:03;;;;;;;0.60;0.38;;;25.10;93.90;;;;;;4931715;28;20051;-88
2022/09/05 09:27:59;;;;;;;0.50;0.50;;;25.20;94.50;;;;;;4956735;28;20039;-87
2022/09/05 09:30:28;;;;;;;0.90;0.20;;;25.30;93.50;;;;;;4957661;28;20126;-87
2022/09/05 09:33:01;;;;;;;0.40;0.40;;;25.40;94.10;;;;;;4971365;28;20038;-88
2022/09/05 09:35:57;;;;;;;0.40;0.40;;;25.50;93.70;;;;;;4941040;28;20046;-87
2022/09/05 09:38:26;;;;;;;0.30;0.30;;;25.60;93.40;;;;;;4957909;28;20062;-87
2022/09/05 09:41:12;;;;;;;0.32;0.32;;;25.60;93.40;;;;;;4940076;28;20062;-86
2022/09/05 09:43:40;;;;;;;0.38;0.38;;;25.70;93.40;;;;;;4954234;28;20113;-86
2022/09/05 09:46:29;;;;;;;0.45;0.45;;;25.80;93.20;;;;;;4954331;28;20067;-85
2022/09/05 09:49:30;;;;;;;0.57;0.35;;;25.90;92.60;;;;;;4929948;28;20533;-85
2022/09/05 09:52:21;;;;;;;0.40;0.40;;;26.10;92.50;;;;;;4955620;28;20097;-84
2022/09/05 09:55:15;;;;;;;0.25;0.25;;;26.10;92.60;;;;;;4955230;28;20054;-83
2022/09/05 09:58:18;;;;;;;0.30;0.30;;;26.10;91.90;;;;;;4955355;28;20445;-84
2022/09/05 10:01:05;;;;;;;0.35;0.30;;;26.10;91.90;;;;;;4955810;28;20075;-87
2022/09/05 10:03:46;;;;;;;0.43;0.43;;;26.30;92.40;;;;;;4953575;28;20126;-84
2022/09/05 10:06:13;;;;;;;0.38;0.38;;;26.40;91.80;;;;;;4973469;28;20070;-84
2022/09/05 10:08:45;;;;;;;;;;;26.50;92.30;;;;;;4957666;28;20442;-84
2022/09/05 10:11:25;;;;;;;0.47;0.47;;;26.70;90.70;;;;;;4956549;28;19922;-85
2022/09/05 10:14:13;;;;;;;0.30;0.30;;;26.70;91.30;;;;;;4956391;28;20047;-85
2022/09/05 10:17:06;;;;;;;0.40;0.40;;;26.80;90.90;;;;;;4974129;28;20130;-84
2022/09/05 10:20:03;;;;;;;0.63;0.47;;;26.80;90.40;;;;;;4956639;28;20121;-84
2022/09/05 10:22:35;;;;;;;;;;;26.90;90.30;;;;;;4974450;28;20046;-84
2022/09/05 10:25:29;;;;;;;0.50;0.50;;;27.00;89.60;;;;;;4956219;28;20352;-84
2022/09/05 10:28:10;;;;;;;0.30;0.30;;;27.00;89.50;;;;;;4954642;29;20510;-85
2022/09/05 10:30:44;;;;;;;0.40;0.40;;;27.00;89.40;;;;;;4956521;28;20493;-84
2022/09/05 10:33:28;;;;;;;0.30;0.30;;;27.10;90.00;;;;;;4956293;28;20058;-84
2022/09/05 10:36:18;;;;;;;0.35;0.35;;;27.20;89.10;;;;;;4956208;28;20050;-85
2022/09/05 10:38:48;;;;;;;0.35;0.22;;;27.20;88.40;;;;;;4941574;28;20055;-87
2022/09/05 10:41:18;;;;;;;0.25;0.25;;;27.20;89.80;;;;;;4941381;28;20513;-86
2022/09/05 10:44:00;;;;;;;0.38;0.20;;;27.30;89.40;;;;;;4938350;28;20090;-86
2022/09/05 10:46:47;;;;;;;0.45;0.45;;;27.40;87.60;;;;;;4972627;28;20125;-84
2022/09/05 10:49:14;;;;;;;0.30;0.30;;;27.50;88.70;;;;;;4964301;28;20055;-87
2022/09/05 10:52:15;;;;;;;0.32;0.32;;;27.60;88.60;;;;;;4980536;28;20074;-88
2022/09/05 10:55:04;;;;;;;0.50;0.50;;;27.80;86.60;;;;;;4960174;28;20108;-86
2022/09/05 10:57:40;;;;;;;0.20;0.20;;;27.90;87.70;;;;;;4956737;28;20069;-86
2022/09/05 11:00:12;;;;;;;0.40;0.40;;;28.10;87.20;;;;;;4955840;28;20049;-91
2022/09/05 11:02:41;;;;;;;0.20;0.20;;;28.20;85.60;;;;;;4939495;28;20043;-89
2022/09/05 11:05:29;;;;;;;0.20;0.20;;;28.20;86.20;;;;;;4971562;28;20042;-89
2022/09/05 11:08:04;;;;;;;0.60;0.60;;;28.20;85.50;;;;;;4950490;28;20050;-90
2022/09/05 11:10:40;;;;;;;0.30;0.30;;;28.30;84.90;;;;;;4957025;28;20494;-91
2022/09/05 11:13:40;;;;;;;0.43;0.40;;;28.40;85.50;;;;;;4955431;28;20171;-94
2022/09/05 11:16:33;;;;;;;0.20;0.20;;;28.50;83.20;;;;;;4939862;28;20059;-87
2022/09/05 11:19:20;;;;;;;0.68;0.60;;;28.60;84.90;;;;;;4955999;28;20513;-91
2022/09/05 11:21:52;;;;;;;0.20;0.20;;;28.70;84.00;;;;;;4939325;28;20047;-92
2022/09/05 11:24:23;;;;;;;0.20;0.20;;;28.80;84.60;;;;;;4938316;28;20051;-91
2022/09/05 11:26:58;;;;;;;0.20;0.20;;;28.80;84.30;;;;;;4955903;28;20042;-90
2022/09/05 11:29:35;;;;;;;0.30;0.30;;;28.80;84.10;;;;;;4955505;28;20066;-91
2022/09/05 11:32:50;;;;;;;0.30;0.30;;;29.00;81.60;;;;;;4948405;28;20400;-93
2022/09/05 11:35:27;;;;;;;0.28;0.28;;;29.10;82.50;;;;;;4972022;28;20051;-90
2022/09/05 11:38:09;;;;;;;0.20;0.20;;;29.20;82.00;;;;;;4939795;28;20047;-89
2022/09/05 11:40:52;;;;;;;0.15;0.15;;;29.20;80.90;;;;;;4955479;28;20093;-92
2022/09/05 11:43:42;;;;;;;0.40;0.40;;;29.20;81.20;;;;;;4931154;28;20042;-90
2022/09/05 11:46:38;;;;;;;0.30;0.30;;;29.40;81.50;;;;;;4937089;28;20073;-89
2022/09/05 11:49:06;;;;;;;0.35;0.30;;;29.50;80.20;;;;;;4966521;28;20049;-89
2022/09/05 11:51:44;;;;;;;0.10;0.10;;;29.40;80.90;;;;;;4945911;28;20076;-89
2022/09/05 11:54:47;;;;;;;0.38;0.38;;;29.20;81.20;;;;;;4945469;28;20061;-89
2022/09/05 11:57:38;;;;;;;0.20;0.20;;;29.00;78.50;;;;;;4951943;28;20063;-86
2022/09/05 12:00:10;;;;;;;0.28;0.28;;;28.80;78.90;;;;;;4934883;28;20529;-91
2022/09/05 12:03:13;;;;;;;0.22;0.22;;;28.60;80.60;;;;;;4954100;28;20105;-84
2022/09/05 12:06:01;;;;;;;0.15;0.15;;;28.50;79.40;;;;;;4940772;28;20186;-89
2022/09/05 12:08:43;;;;;;;0.40;0.20;;;28.70;79.40;;;;;;4940225;28;20047;-90
2022/09/05 12:11:19;;;;;;;0.77;0.30;;;28.70;79.00;;;;;;4941281;28;20134;-88
2022/09/05 12:14:12;;;;;;;0.30;0.30;;;28.60;79.10;;;;;;4900013;28;1148582;-87
2022/09/05 12:16:44;;;;;;;0.38;0.32;;;28.50;79.00;;;;;;4957290;28;20121;-91
2022/09/05 12:19:36;;;;;;;0.25;0.25;;;28.80;79.80;;;;;;4957604;28;20429;-88
2022/09/05 12:22:05;;;;;;;0.20;0.20;;;28.90;78.10;;;;;;4957426;28;20047;-87
2022/09/05 12:24:58;;;;;;;0.20;0.20;;;29.10;79.00;;;;;;4954336;28;20612;-86
2022/09/05 12:27:29;;;;;;;0.30;0.30;;;29.00;76.90;;;;;;4955641;28;20043;-85
2022/09/05 12:30:03;;;;;;;0.30;0.30;;;28.90;78.80;;;;;;4974667;28;20055;-88
2022/09/05 12:32:32;;;;;;;0.30;0.28;;;28.90;77.80;;;;;;4975182;28;20050;-87
2022/09/05 12:34:59;;;;;;;0.20;0.20;;;29.00;78.60;;;;;;4974919;28;20051;-87
2022/09/05 12:37:35;;;;;;;0.20;0.20;;;29.00;78.70;;;;;;4973766;28;20362;-85
2022/09/05 12:40:13;;;;;;;0.30;0.30;;;29.20;78.50;;;;;;4975498;28;20055;-89
2022/09/05 12:42:51;;;;;;;0.20;0.20;;;29.20;77.20;;;;;;4957631;28;20105;-85
2022/09/05 12:45:32;;;;;;;0.28;0.28;;;29.10;77.40;;;;;;4972552;28;20042;-87
2022/09/05 12:48:03;;;;;;;0.17;0.17;;;29.10;78.20;;;;;;4957643;28;20486;-87
2022/09/05 12:50:58;;;;;;;0.20;0.20;;;29.30;77.70;;;;;;4957080;28;20074;-87
2022/09/05 12:53:29;;;;;;;0.13;0.13;;;29.50;75.00;;;;;;4941518;28;20889;-88
2022/09/05 12:56:20;;;;;;;0.10;0.10;;;29.60;77.40;;;;;;4974154;28;20081;-88
2022/09/05 12:58:50;;;;;;;0.38;0.38;;;29.80;75.70;;;;;;4957860;28;20054;-88
2022/09/05 13:01:39;;;;;;;0.40;0.40;;;29.90;76.60;;;;;;4956501;28;20043;-87
2022/09/05 13:04:21;;;;;;;0.47;0.47;;;30.20;76.10;;;;;;4956305;28;20082;-87
2022/09/05 13:07:08;;;;;;;0.35;0.30;;;30.20;73.80;;;;;;4957443;28;20057;-89
2022/09/05 13:09:44;;;;;;;0.28;0.28;;;30.10;74.40;;;;;;4974068;28;20137;-87
2022/09/05 13:12:15;;;;;;;0.30;0.30;;;29.90;74.30;;;;;;4956231;28;20469;-87
2022/09/05 13:15:11;;;;;;;0.93;0.25;;;29.90;74.80;;;;;;4949750;28;20047;-88
2022/09/05 13:17:49;;;;;;;0.17;0.17;;;29.90;71.00;;;;;;4955553;28;20039;-90
2022/09/05 13:20:35;;;;;;;0.20;0.20;;;29.90;73.40;;;;;;4957190;28;20129;-87
2022/09/05 13:23:20;;;;;;;0.20;0.20;;;29.70;73.60;;;;;;4957207;28;20109;-86
2022/09/05 13:25:56;;;;;;;0.30;0.22;;;29.50;71.60;;;;;;4956249;28;20061;-87
2022/09/05 13:28:45;;;;;;;0.13;0.13;;;29.60;74.50;;;;;;4942034;28;20090;-87
2022/09/05 13:31:13;;;;;;;0.20;0.20;;;29.80;74.70;;;;;;4940705;28;20055;-86
2022/09/05 13:33:49;;;;;;;0.20;0.20;;;29.90;73.90;;;;;;4957581;28;20046;-86
2022/09/05 13:36:25;;;;;;;0.30;0.30;;;30.10;72.50;;;;;;4973249;28;20065;-87
2022/09/05 13:39:04;;;;;;;0.20;0.20;;;30.20;72.50;;;;;;4975178;28;20050;-86
2022/09/05 13:41:43;;;;;;;0.10;0.10;;;30.40;73.00;;;;;;4958083;28;20637;-86
2022/09/05 13:44:17;;;;;;;0.30;0.10;;;30.60;71.30;;;;;;4975591;28;20054;-86
2022/09/05 13:47:00;;;;;;;0.30;0.30;;;30.50;72.80;;;;;;4974589;28;20060;-86
2022/09/05 13:49:35;;;;;;;0.40;0.15;;;30.30;71.10;;;;;;4957852;28;20469;-87
2022/09/05 13:52:29;;;;;;;0.30;0.30;;;30.20;71.60;;;;;;4942493;28;20059;-87
2022/09/05 13:55:26;;;;;;;0.25;0.25;;;30.30;71.30;;;;;;4958087;28;20046;-87
2022/09/05 13:58:27;;;;;;;0.20;0.20;;;30.30;69.80;;;;;;4958229;28;20098;-87
2022/09/05 14:00:59;;;;;;;0.40;0.40;;;30.10;69.50;;;;;;4917919;28;20536;-86
2022/09/05 14:03:48;;;;;;;0.28;0.20;;;30.00;71.50;;;;;;4955635;28;20522;-87
2022/09/05 14:06:33;;;;;;;0.35;0.20;;;29.80;70.40;;;;;;4958000;28;20062;-86